Ana Sayfa
METAR-TAF:

METAR-TAF

Havaalanları :

Charlevoix Municipal Airport

Charlevoix, Michigan, Amerika Birleşik Devletleri

Enlem: 45-18-17N, Boylam: 085-16-29W, yükseklik: 204 m

Güncel hava durumu gözlemi

Rapor saat 04:16 UTC de 9 dakika önce yapıldı.
Rüzgar kuzeybatıdan 11 kt ve 23 kt'a kadar ani rüzgarlar
Sıcaklık -2°C
Nem 74%
Basınç 1000 hPa
Görüş mesafesi: 8.0 km
1600 ft yükseklikte parçalı bulutlu
2100 ft yükseklikte parçalı çok bulutlu
2700 ft yükseklikte çok bulutlu
hafif kar

METAR: KCVX 100416Z AUTO 32011G23KT 5SM -SN SCT016 BKN021 OVC027 M02/M06 A2952 RMK AO2 T10221060

Saat: 23:25 (04:25 UTC)


TAF: eksik

4.000'den fazla havaalanı için hava durumu gözlemleri ve tahminleri (METAR ve TAF raporları).

Kullanılabilir istasyonlar harita üzerinde sarı ve kırmızı noktalarla gösterilir.

İstasyonun adını görmek için fareyi noktanın üzerinde gezdirin.

Sonrasında hava gözlem ve tahminlerini görmek için tıklayın.

Haritayı değiştirmek için: yaklaştırmak için siyah artı işaretli yeşil düğmeye ve uzaklaştırmak için de eksi işaretli düğmeye hızla tıklayın; bitişik haritalar için yeşil okları kullanın.


METAR-TAF: